Time;durP1;ratioP1;P1;durP2;ratioP2;P2;SDS_P1;SDS_P2;PMS_P1;PMS_P2;Temp;Humidity;BMP_temperature;BMP_pressure;BME280_temperature;BME280_humidity;BME280_pressure;Samples;Min_cycle;Max_cycle;Signal;HPM_P1;HPM_P2
2023/05/20 00:01:21;;;;;;;4.27;3.87;;;13.10;99.90;;;;;;5051153;28;20189;-72
2023/05/20 00:03:47;;;;;;;4.57;3.77;;;13.10;99.90;;;;;;5050298;28;20198;-72
2023/05/20 00:06:13;;;;;;;4.07;3.40;;;13.00;99.90;;;;;;5051346;28;20201;-72
2023/05/20 00:08:38;;;;;;;5.60;3.70;;;13.00;99.90;;;;;;5051061;28;20264;-72
2023/05/20 00:11:04;;;;;;;5.27;4.17;;;13.00;99.90;;;;;;5049749;28;20174;-72
2023/05/20 00:13:30;;;;;;;3.60;3.17;;;13.00;99.90;;;;;;5050718;28;20662;-72
2023/05/20 00:15:55;;;;;;;5.30;3.37;;;13.00;99.90;;;;;;5051173;28;20185;-72
2023/05/20 00:18:21;;;;;;;5.20;4.00;;;13.00;99.90;;;;;;5051079;28;20255;-72
2023/05/20 00:20:47;;;;;;;4.10;3.20;;;13.00;99.90;;;;;;5051000;28;20185;-72
2023/05/20 00:23:12;;;;;;;4.77;3.27;;;13.00;99.90;;;;;;5054092;28;20560;-72
2023/05/20 00:25:38;;;;;;;3.80;3.00;;;13.00;99.90;;;;;;5050884;28;20270;-72
2023/05/20 00:28:05;;;;;;;4.57;3.10;;;13.00;99.90;;;;;;5050813;28;20265;-72
2023/05/20 00:30:30;;;;;;;3.90;3.50;;;13.00;99.90;;;;;;5050531;28;20206;-72
2023/05/20 00:32:56;;;;;;;4.20;3.30;;;13.00;99.90;;;;;;5050527;28;20879;-72
2023/05/20 00:35:22;;;;;;;3.47;3.10;;;13.00;99.90;;;;;;5050500;28;20597;-72
2023/05/20 00:37:47;;;;;;;4.50;3.80;;;13.00;99.90;;;;;;5050412;28;20196;-72
2023/05/20 00:40:14;;;;;;;6.50;3.93;;;13.00;99.90;;;;;;5050460;28;20186;-72
2023/05/20 00:42:40;;;;;;;4.43;4.03;;;13.00;99.90;;;;;;5050396;28;20558;-72
2023/05/20 00:45:06;;;;;;;4.10;3.60;;;13.00;99.90;;;;;;5050194;28;20456;-72
2023/05/20 00:47:35;;;;;;;7.43;4.33;;;12.90;99.90;;;;;;5050258;28;20517;-72
2023/05/20 00:50:02;;;;;;;6.47;3.97;;;12.90;99.90;;;;;;5050351;28;20451;-72
2023/05/20 00:52:30;;;;;;;4.67;3.90;;;12.90;99.90;;;;;;5050292;28;20450;-72
2023/05/20 00:54:58;;;;;;;4.20;3.80;;;12.90;99.90;;;;;;5050103;28;20510;-72
2023/05/20 00:57:24;;;;;;;6.60;3.27;;;13.00;99.90;;;;;;5050044;28;20474;-72
2023/05/20 00:59:49;;;;;;;3.97;3.57;;;13.00;99.90;;;;;;5049920;28;20420;-71
2023/05/20 01:02:15;;;;;;;3.50;3.20;;;13.00;99.90;;;;;;5049841;28;20477;-72
2023/05/20 01:04:45;;;;;;;4.90;3.37;;;12.90;99.90;;;;;;5049554;28;20267;-72
2023/05/20 01:07:16;;;;;;;4.60;3.40;;;12.90;99.90;;;;;;5050043;28;20173;-72
2023/05/20 01:09:42;;;;;;;3.87;3.47;;;12.90;99.90;;;;;;5049797;28;20416;-72
2023/05/20 01:12:30;;;;;;;4.77;4.37;;;12.90;99.90;;;;;;5050093;28;20503;-72
2023/05/20 01:15:10;;;;;;;8.87;3.43;;;12.90;99.90;;;;;;5042204;28;20443;-72
2023/05/20 01:17:43;;;;;;;5.50;4.00;;;12.80;99.90;;;;;;5048344;28;20818;-71
2023/05/20 01:20:11;;;;;;;3.87;3.47;;;12.80;99.90;;;;;;5049760;28;20412;-72
2023/05/20 01:22:38;;;;;;;7.50;4.10;;;12.80;99.90;;;;;;5052766;28;20438;-72
2023/05/20 01:25:04;;;;;;;5.97;3.60;;;12.90;99.90;;;;;;5049391;28;20456;-72
2023/05/20 01:27:30;;;;;;;4.33;3.90;;;12.90;99.90;;;;;;5049526;28;20416;-72
2023/05/20 01:29:56;;;;;;;3.83;3.23;;;12.90;99.90;;;;;;5049406;28;20462;-72
2023/05/20 01:32:33;;;;;;;6.07;3.43;;;12.90;99.90;;;;;;5049773;28;20824;-72
2023/05/20 01:34:59;;;;;;;3.60;3.30;;;12.90;99.90;;;;;;5048230;28;20419;-72
2023/05/20 01:37:27;;;;;;;4.30;3.83;;;12.90;99.90;;;;;;5048054;28;21007;-72
2023/05/20 01:39:53;;;;;;;3.80;3.20;;;12.90;99.90;;;;;;5043918;28;20451;-72
2023/05/20 01:42:20;;;;;;;4.20;3.50;;;13.00;99.90;;;;;;5049180;28;20438;-72
2023/05/20 01:44:46;;;;;;;4.50;3.50;;;12.90;99.90;;;;;;5048937;28;20551;-72
2023/05/20 01:47:12;;;;;;;4.37;3.80;;;12.90;99.90;;;;;;5049185;28;20504;-72
2023/05/20 01:49:37;;;;;;;4.97;3.80;;;12.90;99.90;;;;;;5047947;28;20240;-72
2023/05/20 01:52:04;;;;;;;6.13;3.80;;;12.80;99.90;;;;;;5049195;28;20409;-72
2023/05/20 01:54:30;;;;;;;4.83;3.70;;;12.80;99.90;;;;;;5048844;28;20209;-72
2023/05/20 01:56:55;;;;;;;7.70;4.23;;;12.80;99.90;;;;;;5048878;28;20420;-72
2023/05/20 01:59:21;;;;;;;4.20;3.70;;;12.80;99.90;;;;;;5048897;28;20186;-72
2023/05/20 02:01:47;;;;;;;4.37;3.70;;;12.70;99.90;;;;;;5048944;28;20820;-72
2023/05/20 02:04:13;;;;;;;5.90;4.03;;;12.70;99.90;;;;;;5048097;28;20216;-72
2023/05/20 02:06:38;;;;;;;7.70;6.50;;;12.70;99.90;;;;;;5048893;28;20178;-72
2023/05/20 02:09:04;;;;;;;11.93;9.70;;;12.60;99.90;;;;;;5048762;28;20777;-72
2023/05/20 02:11:30;;;;;;;15.00;12.37;;;12.60;99.90;;;;;;5048797;28;20256;-72
2023/05/20 02:13:55;;;;;;;13.57;12.17;;;12.50;99.90;;;;;;5048545;28;20776;-72
2023/05/20 02:16:21;;;;;;;13.13;10.13;;;12.50;99.90;;;;;;5048780;28;20201;-72
2023/05/20 02:18:47;;;;;;;12.70;9.97;;;12.50;99.90;;;;;;5048010;28;20223;-72
2023/05/20 02:21:12;;;;;;;12.13;8.90;;;12.40;99.90;;;;;;5048577;28;20721;-72
2023/05/20 02:23:38;;;;;;;13.33;8.30;;;12.40;99.90;;;;;;5050887;28;20198;-72
2023/05/20 02:26:04;;;;;;;7.77;6.13;;;12.40;99.90;;;;;;5048686;28;20220;-72
2023/05/20 02:28:30;;;;;;;7.50;6.40;;;12.40;99.90;;;;;;5048336;28;20177;-72
2023/05/20 02:30:55;;;;;;;6.33;5.73;;;12.30;99.90;;;;;;5048731;28;20412;-71
2023/05/20 02:33:21;;;;;;;6.40;5.20;;;12.30;99.90;;;;;;5048348;28;20200;-72
2023/05/20 02:35:47;;;;;;;8.20;4.90;;;12.30;99.90;;;;;;5048377;28;20179;-72
2023/05/20 02:38:12;;;;;;;7.03;4.53;;;12.30;99.90;;;;;;5048241;28;20639;-72
2023/05/20 02:40:38;;;;;;;5.17;4.27;;;12.30;99.90;;;;;;5048260;28;20224;-72
2023/05/20 02:43:04;;;;;;;4.27;3.87;;;12.30;99.90;;;;;;5047979;28;20209;-72
2023/05/20 02:45:30;;;;;;;4.40;4.00;;;12.20;99.90;;;;;;5048304;28;20631;-72
2023/05/20 02:47:56;;;;;;;3.60;3.30;;;12.20;99.90;;;;;;5048134;28;20499;-72
2023/05/20 02:50:22;;;;;;;4.17;3.37;;;12.20;99.90;;;;;;5048307;28;20587;-72
2023/05/20 02:52:47;;;;;;;4.60;4.17;;;12.20;99.90;;;;;;5048109;28;20436;-72
2023/05/20 02:55:14;;;;;;;5.77;4.20;;;12.10;99.90;;;;;;5046810;28;20256;-72
2023/05/20 02:57:40;;;;;;;4.00;3.70;;;12.10;99.90;;;;;;5047907;28;20276;-72
2023/05/20 03:00:09;;;;;;;4.73;3.93;;;12.10;99.90;;;;;;5046883;28;20499;-72
2023/05/20 03:02:35;;;;;;;5.67;4.07;;;12.10;99.90;;;;;;5047255;28;20186;-72
2023/05/20 03:05:02;;;;;;;4.53;4.13;;;12.10;99.90;;;;;;5047948;28;20547;-72
2023/05/20 03:07:28;;;;;;;6.77;4.23;;;12.10;99.90;;;;;;5047970;28;20408;-72
2023/05/20 03:09:54;;;;;;;4.30;3.60;;;12.00;99.90;;;;;;5047893;28;20765;-72
2023/05/20 03:12:19;;;;;;;6.37;4.07;;;12.00;99.90;;;;;;5046921;28;20182;-72
2023/05/20 03:14:45;;;;;;;4.17;3.77;;;12.00;99.90;;;;;;5047675;28;20233;-72
2023/05/20 03:17:11;;;;;;;6.50;3.87;;;12.00;99.90;;;;;;5047979;28;20276;-72
2023/05/20 03:19:36;;;;;;;4.07;3.77;;;11.90;99.90;;;;;;5047788;28;20186;-72
2023/05/20 03:22:03;;;;;;;4.10;3.70;;;11.90;99.90;;;;;;5047921;28;20673;-72
2023/05/20 03:24:28;;;;;;;4.90;4.50;;;11.90;99.90;;;;;;5050197;28;20209;-72
2023/05/20 03:26:54;;;;;;;4.27;3.53;;;11.90;99.90;;;;;;5047868;28;20779;-72
2023/05/20 03:29:22;;;;;;;5.77;3.83;;;11.80;99.90;;;;;;5047677;28;20178;-72
2023/05/20 03:31:47;;;;;;;4.50;3.80;;;11.80;99.90;;;;;;5050698;28;20418;-72
2023/05/20 03:34:13;;;;;;;4.47;4.10;;;11.80;99.90;;;;;;5051528;28;21004;-72
2023/05/20 03:36:39;;;;;;;4.23;3.63;;;11.70;99.90;;;;;;5050317;28;20174;-72
2023/05/20 03:39:04;;;;;;;4.80;4.10;;;11.70;99.90;;;;;;5050306;28;20184;-72
2023/05/20 03:41:31;;;;;;;5.97;3.87;;;11.60;99.90;;;;;;5051274;28;20504;-72
2023/05/20 03:43:57;;;;;;;5.00;4.17;;;11.70;99.90;;;;;;5051310;28;20589;-72
2023/05/20 03:46:22;;;;;;;4.10;3.70;;;11.70;99.90;;;;;;5050506;28;20452;-72
2023/05/20 03:48:48;;;;;;;4.50;4.10;;;11.70;99.90;;;;;;5051422;28;20177;-72
2023/05/20 03:51:13;;;;;;;8.17;4.17;;;11.60;99.90;;;;;;5050209;28;20644;-72
2023/05/20 03:53:39;;;;;;;9.03;4.17;;;11.60;99.90;;;;;;5051323;28;20198;-71
2023/05/20 03:56:05;;;;;;;4.33;3.93;;;11.60;99.90;;;;;;5051727;28;20211;-72
2023/05/20 03:58:31;;;;;;;4.23;3.87;;;11.60;99.90;;;;;;5050984;28;20263;-72
2023/05/20 04:00:57;;;;;;;4.40;3.83;;;11.70;99.90;;;;;;5051580;28;20185;-72
2023/05/20 04:03:23;;;;;;;4.40;3.90;;;11.70;99.90;;;;;;5050930;28;20201;-72
2023/05/20 04:05:49;;;;;;;5.07;3.70;;;11.70;99.90;;;;;;5051271;28;20492;-72
2023/05/20 04:08:15;;;;;;;8.53;4.20;;;11.80;99.90;;;;;;5051042;28;20412;-72
2023/05/20 04:10:44;;;;;;;4.80;4.30;;;11.80;99.90;;;;;;5049785;28;20423;-72
2023/05/20 04:13:10;;;;;;;6.93;3.70;;;11.80;99.90;;;;;;5050940;28;20193;-72
2023/05/20 04:15:37;;;;;;;5.07;4.27;;;11.80;99.90;;;;;;5047099;28;20801;-72
2023/05/20 04:18:06;;;;;;;3.87;3.50;;;11.90;99.90;;;;;;5031395;28;20514;-71
2023/05/20 04:20:32;;;;;;;5.70;4.23;;;11.80;99.90;;;;;;5031242;28;20507;-72
2023/05/20 04:22:58;;;;;;;4.63;4.23;;;11.90;99.90;;;;;;5038053;28;20447;-72
2023/05/20 04:25:24;;;;;;;3.97;3.57;;;11.90;99.90;;;;;;5051060;28;20455;-71
2023/05/20 04:27:52;;;;;;;4.27;3.97;;;11.90;99.90;;;;;;5051160;28;20607;-72
2023/05/20 04:30:20;;;;;;;3.87;3.47;;;12.00;99.90;;;;;;5050917;28;20426;-72
2023/05/20 04:32:47;;;;;;;3.90;3.50;;;12.00;99.90;;;;;;5051110;28;20485;-72
2023/05/20 04:35:13;;;;;;;5.17;3.90;;;12.00;99.90;;;;;;5050954;28;20421;-72
2023/05/20 04:37:41;;;;;;;5.07;4.20;;;12.00;99.90;;;;;;5050950;28;20503;-72
2023/05/20 04:40:08;;;;;;;5.47;4.03;;;12.00;99.90;;;;;;5050902;28;20413;-72
2023/05/20 04:42:33;;;;;;;4.63;3.63;;;12.10;99.90;;;;;;5050433;28;20801;-71
2023/05/20 04:45:00;;;;;;;4.47;3.90;;;12.10;99.90;;;;;;5050139;28;20460;-72
2023/05/20 04:47:29;;;;;;;4.10;3.70;;;12.10;99.90;;;;;;5051198;28;20420;-72
2023/05/20 04:49:58;;;;;;;4.50;4.10;;;12.20;99.90;;;;;;5049512;28;20419;-72
2023/05/20 04:52:23;;;;;;;3.83;3.50;;;12.30;99.90;;;;;;5051115;28;20412;-72
2023/05/20 04:54:49;;;;;;;4.20;3.80;;;12.20;99.90;;;;;;5049192;28;20519;-72
2023/05/20 04:57:16;;;;;;;3.90;3.40;;;12.20;99.90;;;;;;5050716;28;20367;-72
2023/05/20 04:59:44;;;;;;;4.27;3.53;;;12.30;99.90;;;;;;5050598;28;20412;-72
2023/05/20 05:02:10;;;;;;;6.10;4.03;;;12.30;99.90;;;;;;5032737;28;20463;-72
2023/05/20 05:04:35;;;;;;;4.20;3.80;;;12.40;99.90;;;;;;5049786;28;20980;-72
2023/05/20 05:07:01;;;;;;;5.83;3.90;;;12.40;99.90;;;;;;5050665;28;20606;-72
2023/05/20 05:09:27;;;;;;;3.93;3.53;;;12.40;99.90;;;;;;5050226;28;20172;-72
2023/05/20 05:11:52;;;;;;;5.43;3.97;;;12.50;99.90;;;;;;5050511;28;20223;-72
2023/05/20 05:14:18;;;;;;;5.40;4.27;;;12.50;99.90;;;;;;5049993;28;20240;-72
2023/05/20 05:16:44;;;;;;;4.63;3.73;;;12.50;99.90;;;;;;5050273;28;20700;-72
2023/05/20 05:19:09;;;;;;;6.60;4.23;;;12.50;99.90;;;;;;5050287;28;20178;-72
2023/05/20 05:21:35;;;;;;;3.80;3.50;;;12.50;99.90;;;;;;5050058;28;20277;-72
2023/05/20 05:24:01;;;;;;;4.30;3.90;;;12.50;99.90;;;;;;5048714;28;20203;-72
2023/05/20 05:26:26;;;;;;;5.10;3.60;;;12.60;99.90;;;;;;5049957;28;20216;-72
2023/05/20 05:28:54;;;;;;;5.30;4.37;;;12.60;99.90;;;;;;5049938;28;20252;-72
2023/05/20 05:31:20;;;;;;;4.30;3.87;;;12.60;99.90;;;;;;5049806;28;20197;-72
2023/05/20 05:33:45;;;;;;;4.40;3.97;;;12.70;99.90;;;;;;5049874;28;20698;-72
2023/05/20 05:36:11;;;;;;;3.93;3.63;;;12.70;99.90;;;;;;5049903;28;20181;-72
2023/05/20 05:38:37;;;;;;;4.97;4.17;;;12.80;99.90;;;;;;5049681;28;20234;-72
2023/05/20 05:41:02;;;;;;;6.83;4.40;;;12.80;99.90;;;;;;5049604;28;20545;-72
2023/05/20 05:43:28;;;;;;;5.00;4.13;;;12.90;99.90;;;;;;5049384;28;20279;-72
2023/05/20 05:45:54;;;;;;;4.03;3.63;;;12.90;99.90;;;;;;5048401;28;20209;-72
2023/05/20 05:48:20;;;;;;;5.43;4.10;;;12.90;99.90;;;;;;5049518;28;20185;-72
2023/05/20 05:50:46;;;;;;;4.27;3.87;;;13.00;99.90;;;;;;5049320;28;20718;-72
2023/05/20 05:53:12;;;;;;;6.87;4.43;;;13.00;99.90;;;;;;5048440;28;20432;-72
2023/05/20 05:55:37;;;;;;;4.63;4.00;;;13.00;99.90;;;;;;5048055;28;20181;-72
2023/05/20 05:58:03;;;;;;;7.13;4.90;;;13.10;99.90;;;;;;5049457;28;20178;-72
2023/05/20 06:00:29;;;;;;;5.00;4.17;;;13.10;99.90;;;;;;5049093;28;20265;-72
2023/05/20 06:02:55;;;;;;;4.87;4.40;;;13.20;99.90;;;;;;5046922;28;20292;-72
2023/05/20 06:05:20;;;;;;;4.83;4.27;;;13.30;99.90;;;;;;5047382;28;20282;-72
2023/05/20 06:07:46;;;;;;;4.87;4.33;;;13.50;99.90;;;;;;5049127;28;20169;-72
2023/05/20 06:10:12;;;;;;;5.13;4.37;;;13.60;99.90;;;;;;5047866;28;20185;-72
2023/05/20 06:12:37;;;;;;;5.40;4.90;;;13.80;99.90;;;;;;5047091;28;20547;-72
2023/05/20 06:15:03;;;;;;;4.90;4.50;;;13.90;99.90;;;;;;5049060;28;20412;-72
2023/05/20 06:17:29;;;;;;;4.93;4.40;;;14.00;99.90;;;;;;5047733;28;20493;-72
2023/05/20 06:19:55;;;;;;;6.03;5.23;;;14.10;99.90;;;;;;5048657;28;20917;-72
2023/05/20 06:22:20;;;;;;;8.90;5.10;;;14.20;99.90;;;;;;5048477;28;20190;-72
2023/05/20 06:24:46;;;;;;;4.90;4.47;;;14.20;99.90;;;;;;5047326;28;20212;-72
2023/05/20 06:27:12;;;;;;;6.43;4.40;;;14.10;99.90;;;;;;5048741;28;20193;-72
2023/05/20 06:29:37;;;;;;;4.27;3.87;;;14.20;99.90;;;;;;5048598;28;20181;-72
2023/05/20 06:32:03;;;;;;;4.90;4.50;;;14.20;99.90;;;;;;5048863;28;20186;-72
2023/05/20 06:34:29;;;;;;;5.67;5.07;;;14.20;99.90;;;;;;5047863;28;20209;-72
2023/05/20 06:36:55;;;;;;;6.10;4.60;;;14.30;99.90;;;;;;5048490;28;20464;-72
2023/05/20 06:39:20;;;;;;;5.80;4.80;;;14.40;99.90;;;;;;5044471;28;20186;-72
2023/05/20 06:41:46;;;;;;;7.40;5.20;;;14.50;99.90;;;;;;5047397;28;20186;-72
2023/05/20 06:44:12;;;;;;;5.47;4.93;;;14.50;99.90;;;;;;5048302;28;20733;-72
2023/05/20 06:46:37;;;;;;;6.03;4.67;;;14.50;99.90;;;;;;5048629;28;20174;-72
2023/05/20 06:49:03;;;;;;;5.07;4.57;;;14.50;99.90;;;;;;5047211;28;20243;-72
2023/05/20 06:51:29;;;;;;;5.53;4.97;;;14.50;99.90;;;;;;5048463;28;20174;-72
2023/05/20 06:53:55;;;;;;;5.43;4.80;;;14.50;99.90;;;;;;5047095;28;20194;-72
2023/05/20 06:56:21;;;;;;;5.93;5.10;;;14.50;99.90;;;;;;5048079;28;20413;-72
2023/05/20 06:58:46;;;;;;;7.50;5.03;;;14.50;99.90;;;;;;5046861;28;20265;-72
2023/05/20 07:01:12;;;;;;;6.60;4.97;;;14.50;99.90;;;;;;5047548;28;20196;-72
2023/05/20 07:03:38;;;;;;;7.70;5.10;;;14.40;99.90;;;;;;5046491;28;20197;-72
2023/05/20 07:06:04;;;;;;;5.20;4.70;;;14.50;99.90;;;;;;5048202;28;20760;-72
2023/05/20 07:08:29;;;;;;;6.27;4.63;;;14.40;99.90;;;;;;5048238;28;20174;-72
2023/05/20 07:10:55;;;;;;;6.10;5.50;;;14.40;99.90;;;;;;5048340;28;20413;-72
2023/05/20 07:13:24;;;;;;;5.63;4.87;;;14.40;99.90;;;;;;5047642;28;20194;-72
2023/05/20 07:15:50;;;;;;;7.60;5.77;;;14.40;99.90;;;;;;5048256;28;20950;-72
2023/05/20 07:18:16;;;;;;;8.33;5.37;;;14.40;99.90;;;;;;5048121;28;20416;-72
2023/05/20 07:20:43;;;;;;;6.27;5.67;;;14.40;99.90;;;;;;5048141;28;20583;-72
2023/05/20 07:23:08;;;;;;;6.73;5.77;;;14.40;99.90;;;;;;5047490;28;20568;-72
2023/05/20 07:25:34;;;;;;;6.43;5.17;;;14.40;99.90;;;;;;5048160;28;20464;-72
2023/05/20 07:28:00;;;;;;;6.50;5.17;;;14.40;99.90;;;;;;5046627;28;20170;-72
2023/05/20 07:30:26;;;;;;;6.00;5.50;;;14.40;99.90;;;;;;5047629;28;20609;-72
2023/05/20 07:32:52;;;;;;;5.90;5.30;;;14.50;99.90;;;;;;5047880;28;20193;-72
2023/05/20 07:35:17;;;;;;;7.13;5.50;;;14.50;99.90;;;;;;5048094;28;20416;-72
2023/05/20 07:37:43;;;;;;;5.53;5.03;;;14.50;99.90;;;;;;5046541;28;20177;-72
2023/05/20 07:40:10;;;;;;;6.03;5.37;;;14.50;99.90;;;;;;5047980;28;20204;-72
2023/05/20 07:42:35;;;;;;;9.13;5.63;;;14.60;99.90;;;;;;5047890;28;20618;-72
2023/05/20 07:45:01;;;;;;;7.13;6.17;;;14.60;99.90;;;;;;5047929;28;20543;-72
2023/05/20 07:47:30;;;;;;;7.77;6.40;;;14.70;99.90;;;;;;5047746;28;20201;-72
2023/05/20 07:49:55;;;;;;;6.43;5.83;;;14.70;99.90;;;;;;5047976;28;20806;-72
2023/05/20 07:52:21;;;;;;;6.03;5.40;;;14.70;99.90;;;;;;5047903;28;20450;-72
2023/05/20 07:54:47;;;;;;;7.77;6.57;;;14.80;99.90;;;;;;5047291;28;20245;-72
2023/05/20 07:57:12;;;;;;;6.50;5.50;;;14.80;99.90;;;;;;5048016;28;20959;-72
2023/05/20 07:59:38;;;;;;;7.07;5.90;;;14.80;99.90;;;;;;5046373;28;20178;-72
2023/05/20 08:02:04;;;;;;;10.83;5.40;;;14.90;99.90;;;;;;5046948;28;20174;-72
2023/05/20 08:04:30;;;;;;;6.10;5.50;;;14.90;99.90;;;;;;5047468;28;20206;-72
2023/05/20 08:06:55;;;;;;;9.00;6.00;;;15.00;99.90;;;;;;5047765;28;20469;-72
2023/05/20 08:09:21;;;;;;;7.07;6.47;;;15.00;99.90;;;;;;5047704;28;20170;-72
2023/05/20 08:11:47;;;;;;;7.23;6.03;;;15.10;99.90;;;;;;5047959;28;20244;-72
2023/05/20 08:14:12;;;;;;;7.67;6.87;;;15.10;99.90;;;;;;5046135;28;20728;-72
2023/05/20 08:16:38;;;;;;;6.90;6.20;;;15.20;99.90;;;;;;5048889;28;20204;-72
2023/05/20 08:19:04;;;;;;;7.43;6.50;;;15.20;99.90;;;;;;5051517;28;20708;-72
2023/05/20 08:21:29;;;;;;;6.60;6.00;;;15.20;99.90;;;;;;5051547;28;20275;-72
2023/05/20 08:23:55;;;;;;;7.47;6.77;;;15.20;99.90;;;;;;5049704;28;21054;-72
2023/05/20 08:26:21;;;;;;;6.40;5.80;;;15.20;99.90;;;;;;5051617;28;20218;-72
2023/05/20 08:28:47;;;;;;;8.53;6.03;;;15.20;99.90;;;;;;5051117;28;20201;-72
2023/05/20 08:31:13;;;;;;;8.13;6.43;;;15.20;99.90;;;;;;5051370;28;20182;-72
2023/05/20 08:33:39;;;;;;;9.47;6.23;;;15.20;99.90;;;;;;5050846;28;20428;-72
2023/05/20 08:36:07;;;;;;;6.77;6.10;;;15.20;99.90;;;;;;5050927;28;20423;-72
2023/05/20 08:38:32;;;;;;;7.23;6.27;;;15.20;99.90;;;;;;5049561;28;20302;-72
2023/05/20 08:40:58;;;;;;;7.13;6.43;;;15.30;99.90;;;;;;5032710;28;20420;-72
2023/05/20 08:43:25;;;;;;;6.93;6.00;;;15.30;99.90;;;;;;5050330;28;20217;-72
2023/05/20 08:45:51;;;;;;;8.47;6.93;;;15.30;99.90;;;;;;5050937;28;20666;-72
2023/05/20 08:48:18;;;;;;;8.93;6.73;;;15.40;99.90;;;;;;5049507;28;20427;-72
2023/05/20 08:50:49;;;;;;;10.00;6.33;;;15.40;99.90;;;;;;5050564;28;20805;-72
2023/05/20 08:53:15;;;;;;;8.60;6.50;;;15.50;99.90;;;;;;5049322;28;20888;-72
2023/05/20 08:56:01;;;;;;;7.80;6.60;;;15.50;99.90;;;;;;5049481;28;20515;-72
2023/05/20 08:58:31;;;;;;;8.30;6.73;;;15.60;99.90;;;;;;5050400;28;20173;-72
2023/05/20 09:00:57;;;;;;;7.60;6.80;;;15.60;99.90;;;;;;5050434;28;20412;-72
2023/05/20 09:03:24;;;;;;;9.20;8.30;;;15.60;99.90;;;;;;5050146;28;20447;-72
2023/05/20 09:05:50;;;;;;;7.57;6.70;;;15.60;99.90;;;;;;5050589;28;20456;-72
2023/05/20 09:08:16;;;;;;;8.50;7.70;;;15.60;99.90;;;;;;5050348;28;20401;-72
2023/05/20 09:10:42;;;;;;;7.60;6.67;;;15.60;99.90;;;;;;5050172;28;20423;-72
2023/05/20 09:13:09;;;;;;;7.67;6.87;;;15.60;99.90;;;;;;5050382;28;20205;-72
2023/05/20 09:15:35;;;;;;;8.00;7.20;;;15.60;99.90;;;;;;5050705;28;20174;-72
2023/05/20 09:18:02;;;;;;;8.47;7.57;;;15.60;99.90;;;;;;5048839;28;20415;-72
2023/05/20 09:20:29;;;;;;;7.00;6.40;;;15.60;99.90;;;;;;5050049;28;20431;-72
2023/05/20 09:23:02;;;;;;;8.30;7.50;;;15.60;99.90;;;;;;5050326;28;20468;-72
2023/05/20 09:25:28;;;;;;;8.33;7.40;;;15.60;99.90;;;;;;5050441;28;20463;-72
2023/05/20 09:27:54;;;;;;;9.33;7.90;;;15.60;99.90;;;;;;5050013;28;20488;-73
2023/05/20 09:30:21;;;;;;;8.57;7.40;;;15.60;99.90;;;;;;5050340;28;20178;-72
2023/05/20 09:32:57;;;;;;;9.97;8.00;;;15.60;99.90;;;;;;5050222;28;20499;-72
2023/05/20 09:35:24;;;;;;;8.10;7.03;;;15.70;99.90;;;;;;5050178;28;20919;-72
2023/05/20 09:37:55;;;;;;;7.20;6.50;;;15.60;99.90;;;;;;5050091;28;20412;-72
2023/05/20 09:40:27;;;;;;;7.87;7.07;;;15.60;99.90;;;;;;5048667;28;20415;-73
2023/05/20 09:43:02;;;;;;;10.50;7.63;;;15.60;99.90;;;;;;5050060;28;20458;-72
2023/05/20 09:45:28;;;;;;;10.70;7.33;;;15.60;99.90;;;;;;5050037;28;20463;-72
2023/05/20 09:47:55;;;;;;;8.70;7.67;;;15.60;99.90;;;;;;5049782;28;20511;-72
2023/05/20 09:50:22;;;;;;;7.93;7.20;;;15.60;99.90;;;;;;5049766;28;20569;-72
2023/05/20 09:52:49;;;;;;;9.07;8.00;;;15.70;99.90;;;;;;5048670;28;20459;-72
2023/05/20 09:55:16;;;;;;;12.53;8.13;;;15.60;99.90;;;;;;5049744;28;20417;-72
2023/05/20 09:57:43;;;;;;;9.43;8.43;;;15.60;99.90;;;;;;5049658;28;20416;-72
2023/05/20 10:00:11;;;;;;;10.97;9.00;;;15.60;99.90;;;;;;5049615;28;20758;-72
2023/05/20 10:02:37;;;;;;;9.93;8.00;;;15.60;99.90;;;;;;5049613;28;20424;-72
2023/05/20 10:05:10;;;;;;;8.77;7.60;;;15.60;99.90;;;;;;5049341;28;20457;-72
2023/05/20 10:08:17;;;;;;;8.50;7.57;;;15.60;99.90;;;;;;5048300;28;20247;-72
2023/05/20 10:10:57;;;;;;;9.43;8.53;;;15.60;99.90;;;;;;5049368;28;20486;-72
2023/05/20 10:13:57;;;;;;;7.93;7.20;;;15.70;99.90;;;;;;5049252;28;20443;-72
2023/05/20 10:16:48;;;;;;;7.90;7.20;;;15.70;99.90;;;;;;5048329;28;20415;-72
2023/05/20 10:19:14;;;;;;;8.80;7.90;;;15.70;99.90;;;;;;5048027;28;20417;-72
2023/05/20 10:21:40;;;;;;;7.90;7.10;;;15.80;99.90;;;;;;5049397;28;20440;-72
2023/05/20 10:24:10;;;;;;;8.63;7.80;;;15.80;99.90;;;;;;5049011;28;20694;-72
2023/05/20 10:26:37;;;;;;;8.93;7.20;;;15.80;99.90;;;;;;5049329;28;20594;-72
2023/05/20 10:29:17;;;;;;;9.83;7.80;;;15.80;99.90;;;;;;5047422;28;20499;-73
2023/05/20 10:31:50;;;;;;;8.60;7.70;;;15.80;99.90;;;;;;5045724;28;20408;-72
2023/05/20 10:34:18;;;;;;;9.87;8.10;;;15.80;99.90;;;;;;5048183;28;21586;-72
2023/05/20 10:36:53;;;;;;;9.23;7.30;;;15.90;99.90;;;;;;5045800;28;20509;-72
2023/05/20 10:39:26;;;;;;;9.17;7.30;;;15.90;99.90;;;;;;5047027;28;20916;-72
2023/05/20 10:41:51;;;;;;;9.00;7.70;;;16.00;99.90;;;;;;5045077;28;20416;-72
2023/05/20 10:44:17;;;;;;;9.50;7.60;;;16.00;99.90;;;;;;5048301;28;20463;-73
2023/05/20 10:46:43;;;;;;;9.00;8.10;;;16.00;99.90;;;;;;5047091;28;20236;-73
2023/05/20 10:49:21;;;;;;;8.40;7.60;;;16.10;99.90;;;;;;5048195;28;20525;-72
2023/05/20 10:51:46;;;;;;;10.53;7.40;;;16.10;99.90;;;;;;5046790;28;20170;-72
2023/05/20 10:54:13;;;;;;;8.37;7.10;;;16.20;99.90;;;;;;5047917;28;20937;-72
2023/05/20 10:56:49;;;;;;;9.00;8.07;;;16.20;99.90;;;;;;5044197;28;20702;-72
2023/05/20 10:59:15;;;;;;;8.13;7.33;;;16.30;99.90;;;;;;5048172;28;20423;-72
2023/05/20 11:01:42;;;;;;;10.47;8.17;;;16.40;99.90;;;;;;5048161;28;21137;-72
2023/05/20 11:04:08;;;;;;;7.90;7.20;;;16.40;99.90;;;;;;5046483;28;20443;-72
2023/05/20 11:06:34;;;;;;;8.90;8.00;;;16.50;99.90;;;;;;5048084;28;20467;-72
2023/05/20 11:09:06;;;;;;;8.20;7.40;;;16.50;99.90;;;;;;5047756;28;20417;-72
2023/05/20 11:11:32;;;;;;;9.73;8.50;;;16.60;99.90;;;;;;5047810;28;20576;-72
2023/05/20 11:13:59;;;;;;;8.80;8.00;;;16.60;99.90;;;;;;5048579;28;20428;-72
2023/05/20 11:16:25;;;;;;;9.43;8.47;;;16.70;99.90;;;;;;5047508;28;20189;-73
2023/05/20 11:18:51;;;;;;;9.03;8.13;;;16.70;99.90;;;;;;5048384;28;20412;-73
2023/05/20 11:21:19;;;;;;;9.00;8.10;;;16.70;99.90;;;;;;5048336;28;20432;-73
2023/05/20 11:23:44;;;;;;;9.07;8.13;;;16.80;99.90;;;;;;5046742;28;20206;-73
2023/05/20 11:26:10;;;;;;;8.43;7.53;;;16.90;99.90;;;;;;5047208;28;20505;-72
2023/05/20 11:28:37;;;;;;;7.63;6.93;;;17.00;99.90;;;;;;5048401;28;20174;-72
2023/05/20 11:31:03;;;;;;;9.63;8.60;;;17.10;99.90;;;;;;5048262;28;20261;-73
2023/05/20 11:33:29;;;;;;;8.50;7.60;;;17.20;99.90;;;;;;5048230;28;20420;-73
2023/05/20 11:35:56;;;;;;;9.93;9.03;;;17.30;99.90;;;;;;5048622;28;20419;-73
2023/05/20 11:38:22;;;;;;;8.70;8.00;;;17.40;99.90;;;;;;5048289;28;20452;-72
2023/05/20 11:40:53;;;;;;;8.70;7.90;;;17.40;99.90;;;;;;5048178;28;20419;-73
2023/05/20 11:43:19;;;;;;;8.90;7.90;;;17.50;99.90;;;;;;5048019;28;20952;-73
2023/05/20 11:45:51;;;;;;;8.63;7.83;;;17.60;99.90;;;;;;5047617;28;20507;-73
2023/05/20 11:48:18;;;;;;;9.10;7.80;;;17.70;99.90;;;;;;5048156;28;20447;-73
2023/05/20 11:50:46;;;;;;;10.53;7.50;;;17.80;99.90;;;;;;5048153;28;20408;-72
2023/05/20 11:53:19;;;;;;;7.97;7.17;;;17.90;99.90;;;;;;5051108;28;20443;-72
2023/05/20 11:55:48;;;;;;;8.80;7.90;;;18.00;99.90;;;;;;5050892;28;20412;-73
2023/05/20 11:58:29;;;;;;;8.73;7.70;;;18.00;99.90;;;;;;5050657;28;20485;-73
2023/05/20 12:00:55;;;;;;;8.70;7.80;;;18.00;99.90;;;;;;5051843;28;21087;-72
2023/05/20 12:03:21;;;;;;;8.87;7.50;;;18.00;99.90;;;;;;5051778;28;20428;-73
2023/05/20 12:05:47;;;;;;;7.10;6.40;;;18.10;99.90;;;;;;5050633;28;20460;-73
2023/05/20 12:08:13;;;;;;;8.90;7.20;;;18.10;99.90;;;;;;5051712;28;20403;-73
2023/05/20 12:10:39;;;;;;;7.03;5.73;;;18.00;99.90;;;;;;5051650;28;20405;-73
2023/05/20 12:13:07;;;;;;;10.87;7.10;;;18.00;99.90;;;;;;5051374;28;20434;-72
2023/05/20 12:15:35;;;;;;;7.30;6.17;;;18.00;99.90;;;;;;5051700;28;20201;-73
2023/05/20 12:18:01;;;;;;;6.30;5.70;;;18.00;99.90;;;;;;5051521;28;20773;-73
2023/05/20 12:20:27;;;;;;;5.60;5.10;;;18.00;99.90;;;;;;5051636;28;20427;-73
2023/05/20 12:22:53;;;;;;;6.10;5.57;;;18.00;99.90;;;;;;5049907;28;20440;-72
2023/05/20 12:25:20;;;;;;;5.60;4.50;;;18.00;99.90;;;;;;5051275;28;20458;-72
2023/05/20 12:27:47;;;;;;;5.93;5.40;;;18.00;99.90;;;;;;5051219;28;20711;-73
2023/05/20 12:30:18;;;;;;;5.80;5.30;;;18.00;99.90;;;;;;5051248;28;20474;-72
2023/05/20 12:32:45;;;;;;;6.27;5.73;;;18.00;99.90;;;;;;5051414;28;20412;-72
2023/05/20 12:35:12;;;;;;;5.70;5.20;;;18.00;99.90;;;;;;5051253;28;20485;-73
2023/05/20 12:37:39;;;;;;;5.73;5.10;;;17.90;99.90;;;;;;5051019;28;20901;-73
2023/05/20 12:40:07;;;;;;;5.87;5.30;;;17.90;99.90;;;;;;5051078;28;20462;-72
2023/05/20 12:42:36;;;;;;;6.53;5.17;;;17.90;99.90;;;;;;5049818;28;20435;-73
2023/05/20 12:45:03;;;;;;;6.03;5.13;;;17.90;99.90;;;;;;5050980;28;20550;-73